sensor_id;sensor_type;location;lat;lon;timestamp;P1;durP1;ratioP1;P2;durP2;ratioP2
77304;SDS011;66364;52.622;7.746;2023-05-16T00:00:20;3.77;;;1.70;;
77304;SDS011;66364;52.622;7.746;2023-05-16T00:02:22;3.37;;;1.77;;
77304;SDS011;66364;52.622;7.746;2023-05-16T00:04:22;5.37;;;2.17;;
77304;SDS011;66364;52.622;7.746;2023-05-16T00:06:24;6.70;;;2.87;;
77304;SDS011;66364;52.622;7.746;2023-05-16T00:08:25;7.67;;;2.40;;
77304;SDS011;66364;52.622;7.746;2023-05-16T00:10:43;5.00;;;2.25;;
77304;SDS011;66364;52.622;7.746;2023-05-16T00:12:44;4.97;;;2.02;;
77304;SDS011;66364;52.622;7.746;2023-05-16T00:14:45;4.43;;;2.20;;
77304;SDS011;66364;52.622;7.746;2023-05-16T00:16:46;8.47;;;2.63;;
77304;SDS011;66364;52.622;7.746;2023-05-16T00:18:47;5.65;;;2.25;;
77304;SDS011;66364;52.622;7.746;2023-05-16T00:20:48;4.00;;;2.07;;
77304;SDS011;66364;52.622;7.746;2023-05-16T00:22:53;7.15;;;2.80;;
77304;SDS011;66364;52.622;7.746;2023-05-16T00:24:55;13.88;;;2.77;;
77304;SDS011;66364;52.622;7.746;2023-05-16T00:26:56;5.60;;;3.33;;
77304;SDS011;66364;52.622;7.746;2023-05-16T00:28:57;9.90;;;2.60;;
77304;SDS011;66364;52.622;7.746;2023-05-16T00:30:58;3.62;;;1.95;;
77304;SDS011;66364;52.622;7.746;2023-05-16T00:32:59;6.33;;;2.33;;
77304;SDS011;66364;52.622;7.746;2023-05-16T00:35:01;10.30;;;2.80;;
77304;SDS011;66364;52.622;7.746;2023-05-16T00:37:02;7.37;;;2.45;;
77304;SDS011;66364;52.622;7.746;2023-05-16T00:39:04;10.80;;;2.15;;
77304;SDS011;66364;52.622;7.746;2023-05-16T00:41:05;6.53;;;2.83;;
77304;SDS011;66364;52.622;7.746;2023-05-16T00:43:06;6.13;;;2.17;;
77304;SDS011;66364;52.622;7.746;2023-05-16T00:45:07;6.37;;;3.53;;
77304;SDS011;66364;52.622;7.746;2023-05-16T00:47:09;4.90;;;2.10;;
77304;SDS011;66364;52.622;7.746;2023-05-16T00:49:11;3.25;;;2.58;;
77304;SDS011;66364;52.622;7.746;2023-05-16T00:51:12;8.10;;;2.47;;
77304;SDS011;66364;52.622;7.746;2023-05-16T00:53:13;6.50;;;2.60;;
77304;SDS011;66364;52.622;7.746;2023-05-16T00:55:33;7.47;;;2.05;;
77304;SDS011;66364;52.622;7.746;2023-05-16T00:57:34;6.70;;;2.12;;
77304;SDS011;66364;52.622;7.746;2023-05-16T00:59:35;8.30;;;2.55;;
77304;SDS011;66364;52.622;7.746;2023-05-16T01:01:36;5.40;;;2.10;;
77304;SDS011;66364;52.622;7.746;2023-05-16T01:03:38;3.35;;;1.90;;
77304;SDS011;66364;52.622;7.746;2023-05-16T01:05:39;11.60;;;2.50;;
77304;SDS011;66364;52.622;7.746;2023-05-16T01:07:41;11.35;;;2.67;;
77304;SDS011;66364;52.622;7.746;2023-05-16T01:09:51;7.03;;;2.45;;
77304;SDS011;66364;52.622;7.746;2023-05-16T01:14:50;8.98;;;2.25;;
77304;SDS011;66364;52.622;7.746;2023-05-16T01:22:02;10.08;;;2.30;;
77304;SDS011;66364;52.622;7.746;2023-05-16T01:24:13;12.33;;;2.33;;
77304;SDS011;66364;52.622;7.746;2023-05-16T01:26:19;4.72;;;2.45;;
77304;SDS011;66364;52.622;7.746;2023-05-16T01:28:27;8.90;;;3.15;;
77304;SDS011;66364;52.622;7.746;2023-05-16T01:30:35;8.73;;;5.05;;
77304;SDS011;66364;52.622;7.746;2023-05-16T01:32:38;8.68;;;2.30;;
77304;SDS011;66364;52.622;7.746;2023-05-16T01:34:40;7.25;;;2.25;;
77304;SDS011;66364;52.622;7.746;2023-05-16T01:43:34;6.12;;;2.55;;
77304;SDS011;66364;52.622;7.746;2023-05-16T01:45:39;10.08;;;2.70;;
77304;SDS011;66364;52.622;7.746;2023-05-16T01:47:46;9.93;;;3.37;;
77304;SDS011;66364;52.622;7.746;2023-05-16T01:50:02;7.70;;;4.15;;
77304;SDS011;66364;52.622;7.746;2023-05-16T01:52:44;11.08;;;3.40;;
77304;SDS011;66364;52.622;7.746;2023-05-16T01:54:37;11.28;;;2.60;;
77304;SDS011;66364;52.622;7.746;2023-05-16T01:56:42;7.30;;;2.70;;
77304;SDS011;66364;52.622;7.746;2023-05-16T01:58:48;9.38;;;3.05;;
77304;SDS011;66364;52.622;7.746;2023-05-16T02:00:53;6.17;;;2.42;;
77304;SDS011;66364;52.622;7.746;2023-05-16T02:02:58;9.65;;;2.90;;
77304;SDS011;66364;52.622;7.746;2023-05-16T02:05:00;9.58;;;3.45;;
77304;SDS011;66364;52.622;7.746;2023-05-16T02:07:01;6.80;;;3.20;;
77304;SDS011;66364;52.622;7.746;2023-05-16T02:09:02;7.72;;;3.05;;
77304;SDS011;66364;52.622;7.746;2023-05-16T02:11:03;6.33;;;2.60;;
77304;SDS011;66364;52.622;7.746;2023-05-16T02:13:04;8.57;;;3.80;;
77304;SDS011;66364;52.622;7.746;2023-05-16T02:15:06;11.38;;;3.00;;
77304;SDS011;66364;52.622;7.746;2023-05-16T02:17:09;8.38;;;2.42;;
77304;SDS011;66364;52.622;7.746;2023-05-16T02:19:12;7.87;;;3.47;;
77304;SDS011;66364;52.622;7.746;2023-05-16T02:21:15;9.70;;;3.27;;
77304;SDS011;66364;52.622;7.746;2023-05-16T02:23:17;12.73;;;3.45;;
77304;SDS011;66364;52.622;7.746;2023-05-16T02:25:20;13.40;;;5.47;;
77304;SDS011;66364;52.622;7.746;2023-05-16T02:27:21;9.23;;;3.40;;
77304;SDS011;66364;52.622;7.746;2023-05-16T02:29:24;10.40;;;3.12;;
77304;SDS011;66364;52.622;7.746;2023-05-16T02:31:30;11.60;;;3.22;;
77304;SDS011;66364;52.622;7.746;2023-05-16T02:33:32;11.53;;;3.30;;
77304;SDS011;66364;52.622;7.746;2023-05-16T02:35:34;8.70;;;3.90;;
77304;SDS011;66364;52.622;7.746;2023-05-16T02:37:35;6.63;;;2.80;;
77304;SDS011;66364;52.622;7.746;2023-05-16T02:39:37;11.70;;;2.62;;
77304;SDS011;66364;52.622;7.746;2023-05-16T02:41:38;16.42;;;3.70;;
77304;SDS011;66364;52.622;7.746;2023-05-16T02:43:41;11.40;;;2.77;;
77304;SDS011;66364;52.622;7.746;2023-05-16T02:45:42;9.90;;;3.45;;
77304;SDS011;66364;52.622;7.746;2023-05-16T02:47:44;13.90;;;3.65;;
77304;SDS011;66364;52.622;7.746;2023-05-16T02:49:45;10.28;;;4.37;;
77304;SDS011;66364;52.622;7.746;2023-05-16T02:51:46;10.63;;;3.30;;
77304;SDS011;66364;52.622;7.746;2023-05-16T02:53:47;12.83;;;3.10;;
77304;SDS011;66364;52.622;7.746;2023-05-16T02:55:49;18.60;;;3.30;;
77304;SDS011;66364;52.622;7.746;2023-05-16T02:57:50;15.58;;;3.50;;
77304;SDS011;66364;52.622;7.746;2023-05-16T02:59:51;15.03;;;3.10;;
77304;SDS011;66364;52.622;7.746;2023-05-16T03:01:52;9.10;;;3.17;;
77304;SDS011;66364;52.622;7.746;2023-05-16T03:05:57;13.05;;;3.87;;
77304;SDS011;66364;52.622;7.746;2023-05-16T03:07:59;12.25;;;4.30;;
77304;SDS011;66364;52.622;7.746;2023-05-16T03:10:00;11.73;;;2.70;;
77304;SDS011;66364;52.622;7.746;2023-05-16T03:12:01;13.57;;;3.17;;
77304;SDS011;66364;52.622;7.746;2023-05-16T03:14:01;13.03;;;3.47;;
77304;SDS011;66364;52.622;7.746;2023-05-16T03:16:03;13.85;;;3.47;;
77304;SDS011;66364;52.622;7.746;2023-05-16T03:18:06;10.72;;;3.72;;
77304;SDS011;66364;52.622;7.746;2023-05-16T03:20:08;9.45;;;3.37;;
77304;SDS011;66364;52.622;7.746;2023-05-16T03:22:10;9.75;;;3.45;;
77304;SDS011;66364;52.622;7.746;2023-05-16T03:24:10;17.80;;;4.60;;
77304;SDS011;66364;52.622;7.746;2023-05-16T03:26:11;8.77;;;3.40;;
77304;SDS011;66364;52.622;7.746;2023-05-16T03:28:12;8.77;;;3.10;;
77304;SDS011;66364;52.622;7.746;2023-05-16T03:30:14;10.58;;;3.30;;
77304;SDS011;66364;52.622;7.746;2023-05-16T03:32:16;9.83;;;2.58;;
77304;SDS011;66364;52.622;7.746;2023-05-16T03:34:17;12.60;;;2.42;;
77304;SDS011;66364;52.622;7.746;2023-05-16T03:36:20;9.03;;;2.67;;
77304;SDS011;66364;52.622;7.746;2023-05-16T03:38:22;13.50;;;4.00;;
77304;SDS011;66364;52.622;7.746;2023-05-16T03:40:23;9.93;;;2.72;;
77304;SDS011;66364;52.622;7.746;2023-05-16T03:42:24;9.90;;;3.00;;
77304;SDS011;66364;52.622;7.746;2023-05-16T03:44:25;11.53;;;3.33;;
77304;SDS011;66364;52.622;7.746;2023-05-16T03:46:38;10.58;;;2.70;;
77304;SDS011;66364;52.622;7.746;2023-05-16T03:48:39;8.78;;;2.35;;
77304;SDS011;66364;52.622;7.746;2023-05-16T03:50:41;12.85;;;3.27;;
77304;SDS011;66364;52.622;7.746;2023-05-16T03:52:42;13.53;;;3.02;;
77304;SDS011;66364;52.622;7.746;2023-05-16T03:54:44;5.33;;;2.40;;
77304;SDS011;66364;52.622;7.746;2023-05-16T03:56:45;15.30;;;2.37;;
77304;SDS011;66364;52.622;7.746;2023-05-16T03:58:46;8.53;;;2.70;;
77304;SDS011;66364;52.622;7.746;2023-05-16T04:00:47;9.45;;;2.80;;
77304;SDS011;66364;52.622;7.746;2023-05-16T04:04:54;6.37;;;2.47;;
77304;SDS011;66364;52.622;7.746;2023-05-16T04:06:56;9.38;;;2.95;;
77304;SDS011;66364;52.622;7.746;2023-05-16T04:08:58;13.53;;;3.00;;
77304;SDS011;66364;52.622;7.746;2023-05-16T04:10:59;8.60;;;3.02;;
77304;SDS011;66364;52.622;7.746;2023-05-16T04:15:29;12.60;;;2.60;;
77304;SDS011;66364;52.622;7.746;2023-05-16T04:17:42;14.95;;;3.10;;
77304;SDS011;66364;52.622;7.746;2023-05-16T04:19:44;12.73;;;3.42;;
77304;SDS011;66364;52.622;7.746;2023-05-16T04:24:02;16.12;;;3.30;;
77304;SDS011;66364;52.622;7.746;2023-05-16T04:26:03;11.38;;;4.20;;
77304;SDS011;66364;52.622;7.746;2023-05-16T04:28:05;12.03;;;3.00;;
77304;SDS011;66364;52.622;7.746;2023-05-16T04:30:07;9.28;;;3.02;;
77304;SDS011;66364;52.622;7.746;2023-05-16T04:32:09;8.70;;;2.22;;
77304;SDS011;66364;52.622;7.746;2023-05-16T04:34:10;9.30;;;3.20;;
77304;SDS011;66364;52.622;7.746;2023-05-16T04:36:11;18.63;;;3.30;;
77304;SDS011;66364;52.622;7.746;2023-05-16T04:38:12;10.37;;;2.73;;
77304;SDS011;66364;52.622;7.746;2023-05-16T04:40:14;7.28;;;2.92;;
77304;SDS011;66364;52.622;7.746;2023-05-16T04:42:15;8.43;;;2.50;;
77304;SDS011;66364;52.622;7.746;2023-05-16T04:44:17;13.50;;;4.62;;
77304;SDS011;66364;52.622;7.746;2023-05-16T04:46:17;7.50;;;2.40;;
77304;SDS011;66364;52.622;7.746;2023-05-16T04:48:19;13.88;;;3.00;;
77304;SDS011;66364;52.622;7.746;2023-05-16T04:50:20;10.03;;;3.87;;
77304;SDS011;66364;52.622;7.746;2023-05-16T04:52:21;8.73;;;3.57;;
77304;SDS011;66364;52.622;7.746;2023-05-16T04:54:26;14.43;;;3.37;;
77304;SDS011;66364;52.622;7.746;2023-05-16T04:56:27;12.95;;;2.58;;
77304;SDS011;66364;52.622;7.746;2023-05-16T04:58:28;11.08;;;3.47;;
77304;SDS011;66364;52.622;7.746;2023-05-16T05:00:30;11.70;;;2.92;;
77304;SDS011;66364;52.622;7.746;2023-05-16T05:02:31;8.30;;;3.30;;
77304;SDS011;66364;52.622;7.746;2023-05-16T05:04:32;10.73;;;3.27;;
77304;SDS011;66364;52.622;7.746;2023-05-16T05:06:33;9.05;;;3.67;;
77304;SDS011;66364;52.622;7.746;2023-05-16T05:08:35;9.48;;;2.55;;
77304;SDS011;66364;52.622;7.746;2023-05-16T05:10:36;7.97;;;2.85;;
77304;SDS011;66364;52.622;7.746;2023-05-16T05:12:37;13.10;;;3.50;;
77304;SDS011;66364;52.622;7.746;2023-05-16T05:14:38;8.88;;;3.02;;
77304;SDS011;66364;52.622;7.746;2023-05-16T05:16:40;13.15;;;4.00;;
77304;SDS011;66364;52.622;7.746;2023-05-16T05:20:51;17.95;;;3.75;;
77304;SDS011;66364;52.622;7.746;2023-05-16T05:22:52;11.80;;;2.97;;
77304;SDS011;66364;52.622;7.746;2023-05-16T05:24:53;15.63;;;3.65;;
77304;SDS011;66364;52.622;7.746;2023-05-16T05:26:55;16.67;;;3.98;;
77304;SDS011;66364;52.622;7.746;2023-05-16T05:28:57;10.98;;;3.02;;
77304;SDS011;66364;52.622;7.746;2023-05-16T05:30:59;14.78;;;2.92;;
77304;SDS011;66364;52.622;7.746;2023-05-16T05:33:01;11.43;;;3.83;;
77304;SDS011;66364;52.622;7.746;2023-05-16T05:35:02;10.23;;;2.40;;
77304;SDS011;66364;52.622;7.746;2023-05-16T05:37:04;10.08;;;2.65;;
77304;SDS011;66364;52.622;7.746;2023-05-16T05:39:04;13.03;;;2.77;;
77304;SDS011;66364;52.622;7.746;2023-05-16T05:41:06;8.13;;;2.60;;
77304;SDS011;66364;52.622;7.746;2023-05-16T05:43:08;9.23;;;2.87;;
77304;SDS011;66364;52.622;7.746;2023-05-16T05:45:10;10.88;;;2.70;;
77304;SDS011;66364;52.622;7.746;2023-05-16T05:47:11;7.22;;;2.20;;
77304;SDS011;66364;52.622;7.746;2023-05-16T05:49:12;8.73;;;2.45;;
77304;SDS011;66364;52.622;7.746;2023-05-16T05:51:13;9.90;;;2.92;;
77304;SDS011;66364;52.622;7.746;2023-05-16T05:53:14;6.95;;;2.30;;
77304;SDS011;66364;52.622;7.746;2023-05-16T05:55:16;15.48;;;4.37;;
77304;SDS011;66364;52.622;7.746;2023-05-16T05:57:18;8.83;;;2.87;;
77304;SDS011;66364;52.622;7.746;2023-05-16T05:59:19;10.82;;;2.70;;
77304;SDS011;66364;52.622;7.746;2023-05-16T06:01:20;12.43;;;3.60;;
77304;SDS011;66364;52.622;7.746;2023-05-16T06:03:21;9.98;;;2.55;;
77304;SDS011;66364;52.622;7.746;2023-05-16T06:05:22;9.93;;;3.50;;
77304;SDS011;66364;52.622;7.746;2023-05-16T06:07:23;8.50;;;2.17;;
77304;SDS011;66364;52.622;7.746;2023-05-16T06:09:25;14.55;;;2.85;;
77304;SDS011;66364;52.622;7.746;2023-05-16T06:11:26;9.18;;;3.25;;
77304;SDS011;66364;52.622;7.746;2023-05-16T06:13:27;13.97;;;4.37;;
77304;SDS011;66364;52.622;7.746;2023-05-16T06:15:28;11.50;;;2.98;;
77304;SDS011;66364;52.622;7.746;2023-05-16T06:17:30;6.53;;;2.40;;
77304;SDS011;66364;52.622;7.746;2023-05-16T06:19:32;15.20;;;3.10;;
77304;SDS011;66364;52.622;7.746;2023-05-16T06:21:33;11.08;;;3.10;;
77304;SDS011;66364;52.622;7.746;2023-05-16T06:23:34;7.67;;;2.93;;
77304;SDS011;66364;52.622;7.746;2023-05-16T06:25:36;7.08;;;2.83;;
77304;SDS011;66364;52.622;7.746;2023-05-16T06:27:37;12.18;;;3.10;;
77304;SDS011;66364;52.622;7.746;2023-05-16T06:29:38;13.27;;;2.70;;
77304;SDS011;66364;52.622;7.746;2023-05-16T06:31:39;16.70;;;3.47;;
77304;SDS011;66364;52.622;7.746;2023-05-16T06:33:40;7.92;;;2.45;;
77304;SDS011;66364;52.622;7.746;2023-05-16T06:35:42;7.58;;;2.67;;
77304;SDS011;66364;52.622;7.746;2023-05-16T06:37:43;8.38;;;2.60;;
77304;SDS011;66364;52.622;7.746;2023-05-16T06:39:45;6.12;;;3.15;;
77304;SDS011;66364;52.622;7.746;2023-05-16T06:41:47;6.30;;;2.37;;
77304;SDS011;66364;52.622;7.746;2023-05-16T06:43:49;6.37;;;1.72;;
77304;SDS011;66364;52.622;7.746;2023-05-16T06:45:50;9.27;;;2.07;;
77304;SDS011;66364;52.622;7.746;2023-05-16T06:47:52;6.65;;;2.77;;
77304;SDS011;66364;52.622;7.746;2023-05-16T06:49:53;11.85;;;3.67;;
77304;SDS011;66364;52.622;7.746;2023-05-16T06:54:21;8.15;;;2.37;;
77304;SDS011;66364;52.622;7.746;2023-05-16T06:56:23;9.40;;;2.40;;
77304;SDS011;66364;52.622;7.746;2023-05-16T06:58:25;5.25;;;2.30;;
77304;SDS011;66364;52.622;7.746;2023-05-16T07:00:27;7.33;;;1.82;;
77304;SDS011;66364;52.622;7.746;2023-05-16T07:02:28;5.60;;;2.37;;
77304;SDS011;66364;52.622;7.746;2023-05-16T07:04:29;12.68;;;3.05;;
77304;SDS011;66364;52.622;7.746;2023-05-16T07:06:30;10.00;;;2.50;;
77304;SDS011;66364;52.622;7.746;2023-05-16T07:08:32;6.40;;;2.00;;
77304;SDS011;66364;52.622;7.746;2023-05-16T07:10:33;7.45;;;2.52;;
77304;SDS011;66364;52.622;7.746;2023-05-16T07:12:34;10.03;;;2.40;;
77304;SDS011;66364;52.622;7.746;2023-05-16T07:14:36;12.28;;;2.45;;
77304;SDS011;66364;52.622;7.746;2023-05-16T07:16:37;7.60;;;1.95;;
77304;SDS011;66364;52.622;7.746;2023-05-16T07:18:38;7.42;;;1.98;;
77304;SDS011;66364;52.622;7.746;2023-05-16T07:20:39;5.40;;;2.10;;
77304;SDS011;66364;52.622;7.746;2023-05-16T07:22:41;5.40;;;1.75;;
77304;SDS011;66364;52.622;7.746;2023-05-16T07:24:42;12.28;;;2.83;;
77304;SDS011;66364;52.622;7.746;2023-05-16T07:26:44;12.05;;;2.62;;
77304;SDS011;66364;52.622;7.746;2023-05-16T07:28:45;8.23;;;2.00;;
77304;SDS011;66364;52.622;7.746;2023-05-16T07:30:46;9.97;;;2.57;;
77304;SDS011;66364;52.622;7.746;2023-05-16T07:32:50;6.30;;;1.70;;
77304;SDS011;66364;52.622;7.746;2023-05-16T07:34:51;9.25;;;2.20;;
77304;SDS011;66364;52.622;7.746;2023-05-16T07:36:52;9.53;;;2.50;;
77304;SDS011;66364;52.622;7.746;2023-05-16T07:38:53;6.42;;;1.92;;
77304;SDS011;66364;52.622;7.746;2023-05-16T07:40:55;3.95;;;1.85;;
77304;SDS011;66364;52.622;7.746;2023-05-16T07:42:56;11.48;;;2.10;;
77304;SDS011;66364;52.622;7.746;2023-05-16T07:44:57;7.55;;;2.25;;
77304;SDS011;66364;52.622;7.746;2023-05-16T07:46:58;6.08;;;2.30;;
77304;SDS011;66364;52.622;7.746;2023-05-16T07:48:59;7.50;;;1.92;;
77304;SDS011;66364;52.622;7.746;2023-05-16T07:51:00;3.33;;;1.47;;
77304;SDS011;66364;52.622;7.746;2023-05-16T07:53:01;10.30;;;2.07;;
77304;SDS011;66364;52.622;7.746;2023-05-16T07:55:03;8.30;;;2.35;;
77304;SDS011;66364;52.622;7.746;2023-05-16T07:57:05;6.47;;;1.77;;
77304;SDS011;66364;52.622;7.746;2023-05-16T07:59:06;5.90;;;1.70;;
77304;SDS011;66364;52.622;7.746;2023-05-16T08:01:07;5.08;;;1.37;;
77304;SDS011;66364;52.622;7.746;2023-05-16T08:03:09;8.08;;;1.70;;
77304;SDS011;66364;52.622;7.746;2023-05-16T08:05:10;8.48;;;2.35;;
77304;SDS011;66364;52.622;7.746;2023-05-16T08:07:11;8.50;;;2.50;;
77304;SDS011;66364;52.622;7.746;2023-05-16T08:09:13;6.00;;;2.00;;
77304;SDS011;66364;52.622;7.746;2023-05-16T08:11:14;5.37;;;2.20;;
77304;SDS011;66364;52.622;7.746;2023-05-16T08:13:15;4.37;;;1.70;;
77304;SDS011;66364;52.622;7.746;2023-05-16T08:15:16;5.27;;;2.07;;
77304;SDS011;66364;52.622;7.746;2023-05-16T08:17:17;6.83;;;1.67;;
77304;SDS011;66364;52.622;7.746;2023-05-16T08:19:17;7.00;;;2.20;;
77304;SDS011;66364;52.622;7.746;2023-05-16T08:21:18;7.27;;;1.77;;
77304;SDS011;66364;52.622;7.746;2023-05-16T08:23:19;8.90;;;1.40;;
77304;SDS011;66364;52.622;7.746;2023-05-16T08:25:20;8.90;;;2.77;;
77304;SDS011;66364;52.622;7.746;2023-05-16T08:27:21;6.83;;;1.80;;
77304;SDS011;66364;52.622;7.746;2023-05-16T08:29:21;3.57;;;1.33;;
77304;SDS011;66364;52.622;7.746;2023-05-16T08:31:22;6.87;;;1.63;;
77304;SDS011;66364;52.622;7.746;2023-05-16T08:33:23;6.13;;;2.07;;
77304;SDS011;66364;52.622;7.746;2023-05-16T08:35:36;5.17;;;1.70;;
77304;SDS011;66364;52.622;7.746;2023-05-16T08:37:45;9.40;;;2.25;;
77304;SDS011;66364;52.622;7.746;2023-05-16T08:39:47;2.77;;;1.10;;
77304;SDS011;66364;52.622;7.746;2023-05-16T08:41:48;6.28;;;2.10;;
77304;SDS011;66364;52.622;7.746;2023-05-16T08:43:51;6.17;;;2.20;;
77304;SDS011;66364;52.622;7.746;2023-05-16T08:45:52;5.75;;;1.40;;
77304;SDS011;66364;52.622;7.746;2023-05-16T08:47:55;3.43;;;1.57;;
77304;SDS011;66364;52.622;7.746;2023-05-16T08:50:05;3.37;;;1.10;;
77304;SDS011;66364;52.622;7.746;2023-05-16T08:52:04;5.28;;;1.60;;
77304;SDS011;66364;52.622;7.746;2023-05-16T08:54:11;5.42;;;1.50;;
77304;SDS011;66364;52.622;7.746;2023-05-16T08:56:13;8.40;;;2.08;;
77304;SDS011;66364;52.622;7.746;2023-05-16T08:58:15;11.12;;;1.50;;
77304;SDS011;66364;52.622;7.746;2023-05-16T09:00:17;7.37;;;1.57;;
77304;SDS011;66364;52.622;7.746;2023-05-16T09:02:20;6.60;;;1.85;;
77304;SDS011;66364;52.622;7.746;2023-05-16T09:04:21;4.00;;;1.52;;
77304;SDS011;66364;52.622;7.746;2023-05-16T09:06:24;5.83;;;1.20;;
77304;SDS011;66364;52.622;7.746;2023-05-16T09:08:25;5.67;;;1.62;;
77304;SDS011;66364;52.622;7.746;2023-05-16T09:10:26;6.30;;;1.47;;
77304;SDS011;66364;52.622;7.746;2023-05-16T09:12:27;13.30;;;2.53;;
77304;SDS011;66364;52.622;7.746;2023-05-16T09:14:28;1.80;;;1.03;;
77304;SDS011;66364;52.622;7.746;2023-05-16T09:16:29;3.07;;;1.13;;
77304;SDS011;66364;52.622;7.746;2023-05-16T09:18:30;3.67;;;1.30;;
77304;SDS011;66364;52.622;7.746;2023-05-16T09:20:31;4.50;;;1.60;;
77304;SDS011;66364;52.622;7.746;2023-05-16T09:22:32;8.40;;;2.03;;
77304;SDS011;66364;52.622;7.746;2023-05-16T09:24:35;4.80;;;1.30;;
77304;SDS011;66364;52.622;7.746;2023-05-16T09:26:39;3.40;;;1.32;;
77304;SDS011;66364;52.622;7.746;2023-05-16T09:28:41;6.05;;;1.75;;
77304;SDS011;66364;52.622;7.746;2023-05-16T09:30:44;5.90;;;1.72;;
77304;SDS011;66364;52.622;7.746;2023-05-16T09:32:46;5.62;;;1.87;;
77304;SDS011;66364;52.622;7.746;2023-05-16T09:34:47;5.33;;;1.30;;
77304;SDS011;66364;52.622;7.746;2023-05-16T09:36:53;3.40;;;1.55;;
77304;SDS011;66364;52.622;7.746;2023-05-16T09:38:53;3.98;;;1.22;;
77304;SDS011;66364;52.622;7.746;2023-05-16T09:40:55;4.72;;;1.57;;
77304;SDS011;66364;52.622;7.746;2023-05-16T09:43:03;4.75;;;1.72;;
77304;SDS011;66364;52.622;7.746;2023-05-16T09:45:06;3.00;;;1.90;;
77304;SDS011;66364;52.622;7.746;2023-05-16T09:47:16;7.35;;;1.32;;
77304;SDS011;66364;52.622;7.746;2023-05-16T09:49:18;7.17;;;1.40;;
77304;SDS011;66364;52.622;7.746;2023-05-16T09:51:22;6.67;;;1.52;;
77304;SDS011;66364;52.622;7.746;2023-05-16T09:53:28;3.15;;;1.30;;
77304;SDS011;66364;52.622;7.746;2023-05-16T09:55:30;4.55;;;1.35;;
77304;SDS011;66364;52.622;7.746;2023-05-16T09:57:31;7.67;;;1.98;;
77304;SDS011;66364;52.622;7.746;2023-05-16T09:59:44;6.40;;;1.67;;
77304;SDS011;66364;52.622;7.746;2023-05-16T10:01:45;4.25;;;1.20;;
77304;SDS011;66364;52.622;7.746;2023-05-16T10:03:48;2.25;;;0.82;;
77304;SDS011;66364;52.622;7.746;2023-05-16T10:05:50;2.62;;;1.20;;
77304;SDS011;66364;52.622;7.746;2023-05-16T10:07:54;4.17;;;1.17;;
77304;SDS011;66364;52.622;7.746;2023-05-16T10:09:56;5.12;;;1.62;;
77304;SDS011;66364;52.622;7.746;2023-05-16T10:12:03;3.12;;;1.57;;
77304;SDS011;66364;52.622;7.746;2023-05-16T10:14:02;2.87;;;1.10;;
77304;SDS011;66364;52.622;7.746;2023-05-16T10:16:07;4.37;;;1.10;;
77304;SDS011;66364;52.622;7.746;2023-05-16T10:18:13;2.55;;;1.47;;
77304;SDS011;66364;52.622;7.746;2023-05-16T10:20:14;6.37;;;1.30;;
77304;SDS011;66364;52.622;7.746;2023-05-16T10:22:16;6.78;;;1.75;;
77304;SDS011;66364;52.622;7.746;2023-05-16T10:24:24;2.35;;;1.10;;
77304;SDS011;66364;52.622;7.746;2023-05-16T10:26:31;2.20;;;1.10;;
77304;SDS011;66364;52.622;7.746;2023-05-16T10:28:32;7.55;;;1.82;;
77304;SDS011;66364;52.622;7.746;2023-05-16T10:30:36;3.10;;;1.50;;
77304;SDS011;66364;52.622;7.746;2023-05-16T10:32:40;4.10;;;1.50;;
77304;SDS011;66364;52.622;7.746;2023-05-16T10:34:42;4.30;;;1.42;;
77304;SDS011;66364;52.622;7.746;2023-05-16T10:36:45;4.47;;;1.75;;
77304;SDS011;66364;52.622;7.746;2023-05-16T10:38:46;2.77;;;1.50;;
77304;SDS011;66364;52.622;7.746;2023-05-16T10:40:47;4.75;;;1.40;;
77304;SDS011;66364;52.622;7.746;2023-05-16T10:42:53;8.75;;;1.90;;
77304;SDS011;66364;52.622;7.746;2023-05-16T10:45:07;6.22;;;1.65;;
77304;SDS011;66364;52.622;7.746;2023-05-16T10:47:18;3.75;;;1.32;;
77304;SDS011;66364;52.622;7.746;2023-05-16T10:53:37;3.40;;;1.05;;
77304;SDS011;66364;52.622;7.746;2023-05-16T10:55:38;3.40;;;1.20;;
77304;SDS011;66364;52.622;7.746;2023-05-16T10:57:40;2.65;;;1.15;;
77304;SDS011;66364;52.622;7.746;2023-05-16T10:59:44;2.80;;;1.00;;
77304;SDS011;66364;52.622;7.746;2023-05-16T11:01:51;2.35;;;1.12;;
77304;SDS011;66364;52.622;7.746;2023-05-16T11:06:05;3.10;;;1.30;;
77304;SDS011;66364;52.622;7.746;2023-05-16T11:08:06;2.67;;;1.00;;
77304;SDS011;66364;52.622;7.746;2023-05-16T11:10:09;2.98;;;1.37;;
77304;SDS011;66364;52.622;7.746;2023-05-16T11:12:12;3.87;;;0.98;;
77304;SDS011;66364;52.622;7.746;2023-05-16T11:14:23;4.33;;;1.00;;
77304;SDS011;66364;52.622;7.746;2023-05-16T11:16:35;4.72;;;1.22;;
77304;SDS011;66364;52.622;7.746;2023-05-16T11:18:46;4.60;;;1.77;;
77304;SDS011;66364;52.622;7.746;2023-05-16T11:20:43;4.67;;;1.77;;
77304;SDS011;66364;52.622;7.746;2023-05-16T11:22:44;2.65;;;1.25;;
77304;SDS011;66364;52.622;7.746;2023-05-16T11:27:12;2.80;;;1.32;;
77304;SDS011;66364;52.622;7.746;2023-05-16T11:29:28;1.30;;;0.75;;
77304;SDS011;66364;52.622;7.746;2023-05-16T11:31:37;5.12;;;1.20;;
77304;SDS011;66364;52.622;7.746;2023-05-16T11:33:40;5.00;;;1.35;;
77304;SDS011;66364;52.622;7.746;2023-05-16T11:35:42;4.45;;;1.67;;
77304;SDS011;66364;52.622;7.746;2023-05-16T11:37:44;6.08;;;1.40;;
77304;SDS011;66364;52.622;7.746;2023-05-16T11:39:51;1.17;;;0.70;;
77304;SDS011;66364;52.622;7.746;2023-05-16T11:41:52;2.80;;;1.27;;
77304;SDS011;66364;52.622;7.746;2023-05-16T11:43:54;7.65;;;1.62;;
77304;SDS011;66364;52.622;7.746;2023-05-16T11:45:56;6.72;;;1.12;;
77304;SDS011;66364;52.622;7.746;2023-05-16T11:48:00;4.60;;;1.17;;
77304;SDS011;66364;52.622;7.746;2023-05-16T11:50:05;2.10;;;1.10;;
77304;SDS011;66364;52.622;7.746;2023-05-16T11:52:07;3.35;;;1.20;;
77304;SDS011;66364;52.622;7.746;2023-05-16T11:54:08;3.42;;;1.60;;
77304;SDS011;66364;52.622;7.746;2023-05-16T11:56:10;2.27;;;0.90;;
77304;SDS011;66364;52.622;7.746;2023-05-16T11:58:11;3.70;;;1.37;;
77304;SDS011;66364;52.622;7.746;2023-05-16T12:00:19;1.95;;;0.90;;
77304;SDS011;66364;52.622;7.746;2023-05-16T12:02:22;2.30;;;1.12;;
77304;SDS011;66364;52.622;7.746;2023-05-16T12:04:22;7.30;;;1.27;;
77304;SDS011;66364;52.622;7.746;2023-05-16T12:06:25;1.70;;;1.05;;
77304;SDS011;66364;52.622;7.746;2023-05-16T12:08:26;3.77;;;1.00;;
77304;SDS011;66364;52.622;7.746;2023-05-16T12:10:27;2.40;;;1.17;;
77304;SDS011;66364;52.622;7.746;2023-05-16T12:12:29;2.62;;;0.90;;
77304;SDS011;66364;52.622;7.746;2023-05-16T12:14:31;7.65;;;1.40;;
77304;SDS011;66364;52.622;7.746;2023-05-16T12:16:32;3.55;;;1.12;;
77304;SDS011;66364;52.622;7.746;2023-05-16T12:18:34;5.45;;;1.40;;
77304;SDS011;66364;52.622;7.746;2023-05-16T12:20:35;2.03;;;1.23;;
77304;SDS011;66364;52.622;7.746;2023-05-16T12:22:38;4.28;;;1.22;;
77304;SDS011;66364;52.622;7.746;2023-05-16T12:24:40;4.83;;;1.87;;
77304;SDS011;66364;52.622;7.746;2023-05-16T12:26:42;3.98;;;1.25;;
77304;SDS011;66364;52.622;7.746;2023-05-16T12:28:42;4.33;;;1.10;;
77304;SDS011;66364;52.622;7.746;2023-05-16T12:30:44;2.85;;;1.20;;
77304;SDS011;66364;52.622;7.746;2023-05-16T12:32:45;3.75;;;1.20;;
77304;SDS011;66364;52.622;7.746;2023-05-16T12:34:49;7.50;;;1.37;;
77304;SDS011;66364;52.622;7.746;2023-05-16T12:36:51;3.67;;;1.32;;
77304;SDS011;66364;52.622;7.746;2023-05-16T12:38:52;3.55;;;1.02;;
77304;SDS011;66364;52.622;7.746;2023-05-16T12:40:57;7.15;;;1.57;;
77304;SDS011;66364;52.622;7.746;2023-05-16T12:42:59;1.95;;;0.75;;
77304;SDS011;66364;52.622;7.746;2023-05-16T12:45:00;8.05;;;1.02;;
77304;SDS011;66364;52.622;7.746;2023-05-16T12:47:01;3.30;;;1.13;;
77304;SDS011;66364;52.622;7.746;2023-05-16T12:49:02;5.67;;;1.10;;
77304;SDS011;66364;52.622;7.746;2023-05-16T12:51:17;4.55;;;1.45;;